createdAt,value
2022-11-24T01:03:51.105Z,85.04
2022-11-24T01:06:24.195Z,84.98
2022-11-24T01:09:13.000Z,84.74
2022-11-24T01:12:01.199Z,84.91
2022-11-24T01:21:42.601Z,84.71
2022-11-24T01:24:14.654Z,85.03
2022-11-24T01:26:47.776Z,84.87
2022-11-24T01:29:26.269Z,85.06
2022-11-24T01:31:58.684Z,85.00
2022-11-24T01:34:29.734Z,85.13
2022-11-24T01:37:01.090Z,84.89
2022-11-24T01:39:32.194Z,85.15
2022-11-24T01:42:08.378Z,85.10
2022-11-24T01:44:39.025Z,85.04
2022-11-24T01:47:28.630Z,84.98
2022-11-24T01:50:04.140Z,84.88
2022-11-24T01:52:42.574Z,84.83
2022-11-24T01:55:19.024Z,85.05
2022-11-24T01:57:55.450Z,84.85
2022-11-24T02:00:26.728Z,85.10
2022-11-24T02:02:59.326Z,84.91
2022-11-24T02:05:36.609Z,85.10
2022-11-24T02:08:16.123Z,84.88
2022-11-24T02:10:48.951Z,85.00
2022-11-24T02:13:20.803Z,84.70
2022-11-24T02:15:52.211Z,84.80
2022-11-24T02:18:29.683Z,84.90
2022-11-24T02:21:02.192Z,85.07
2022-11-24T02:23:40.352Z,84.76
2022-11-24T02:26:19.809Z,84.73
2022-11-24T02:28:52.301Z,85.01
2022-11-24T02:31:23.092Z,84.75
2022-11-24T02:33:56.459Z,84.56
2022-11-24T02:36:29.645Z,84.64
2022-11-24T02:40:31.978Z,84.33
2022-11-24T02:43:12.650Z,84.64
2022-11-24T02:45:41.134Z,84.26
2022-11-24T02:48:09.148Z,84.35
2022-11-24T02:50:38.740Z,84.51
2022-11-24T02:53:06.917Z,84.64
2022-11-24T02:55:38.578Z,84.64
2022-11-24T02:58:09.202Z,84.51
2022-11-24T03:00:39.132Z,84.55
2022-11-24T03:03:16.723Z,84.55
2022-11-24T03:05:48.594Z,84.49
2022-11-24T03:08:17.367Z,84.58
2022-11-24T03:10:49.396Z,84.53
2022-11-24T03:13:19.025Z,84.57
2022-11-24T03:15:47.384Z,84.67
2022-11-24T03:18:19.331Z,84.46
2022-11-24T03:20:58.738Z,84.63
2022-11-24T03:23:27.026Z,84.66
2022-11-24T03:25:54.841Z,84.48
2022-11-24T03:28:23.064Z,84.62
2022-11-24T03:30:51.195Z,84.51
2022-11-24T03:33:19.062Z,84.58
2022-11-24T03:35:48.439Z,84.80
2022-11-24T03:38:16.718Z,84.98
2022-11-24T03:40:44.825Z,84.63
2022-11-24T03:43:13.141Z,84.82
2022-11-24T03:45:46.345Z,84.70
2022-11-24T03:48:15.292Z,85.23
2022-11-24T03:50:53.315Z,84.69
2022-11-24T03:53:28.597Z,85.32
2022-11-24T03:55:56.520Z,85.17
2022-11-24T03:58:24.872Z,85.13
2022-11-24T04:00:54.597Z,84.99
2022-11-24T04:03:24.121Z,85.13
2022-11-24T04:06:02.019Z,85.02
2022-11-24T04:08:30.548Z,85.27
2022-11-24T04:10:59.350Z,85.14
2022-11-24T04:13:30.054Z,85.09
2022-11-24T04:16:07.230Z,85.05
2022-11-24T04:18:35.687Z,85.27
2022-11-24T04:21:04.731Z,85.18
2022-11-24T04:23:33.324Z,85.03
2022-11-24T04:28:45.498Z,85.04
2022-11-24T04:31:17.503Z,85.16
2022-11-24T04:33:50.023Z,85.07
2022-11-24T04:36:20.768Z,85.29
2022-11-24T04:39:19.642Z,85.21
2022-11-24T04:41:45.076Z,85.01
2022-11-24T04:44:15.627Z,85.01
2022-11-24T04:46:47.459Z,85.28
